Time;durP1;ratioP1;P1;durP2;ratioP2;P2;SDS_P1;SDS_P2;PMS_P1;PMS_P2;Temp;Humidity;BMP_temperature;BMP_pressure;BME280_temperature;BME280_humidity;BME280_pressure;Samples;Min_cycle;Max_cycle;Signal;HPM_P1;HPM_P2
2023/01/01 00:00:15;;;;;;;25.33;23.50;;;;;;;;;;5100584;28;20501;-82
2023/01/01 00:02:42;;;;;;;23.60;22.10;;;;;;;;;;5100623;28;20434;-82
2023/01/01 00:05:10;;;;;;;25.40;23.43;;;;;;;;;;5099718;28;20848;-82
2023/01/01 00:07:37;;;;;;;25.20;23.30;;;;;;;;;;5100436;28;20491;-82
2023/01/01 00:12:50;;;;;;;24.33;22.40;;;;;;;;;;5100599;28;20393;-82
2023/01/01 00:15:17;;;;;;;25.90;23.57;;;;;;;;;;5099585;28;20457;-82
2023/01/01 00:17:44;;;;;;;24.93;23.13;;;;;;;;;;5099449;28;20481;-82
2023/01/01 00:20:11;;;;;;;24.07;22.37;;;;;;;;;;5100132;28;20478;-82
2023/01/01 00:22:39;;;;;;;24.93;22.80;;;;;;;;;;5099920;28;20440;-82
2023/01/01 00:25:08;;;;;;;23.57;21.90;;;;;;;;;;5099667;28;20968;-82
2023/01/01 00:27:35;;;;;;;24.40;22.80;;;;;;;;;;5099457;28;20505;-81
2023/01/01 00:30:03;;;;;;;26.07;24.20;;;;;;;;;;5100607;28;20445;-82
2023/01/01 00:32:30;;;;;;;25.27;23.50;;;;;;;;;;5100165;28;20462;-81
2023/01/01 00:34:57;;;;;;;25.07;23.00;;;;;;;;;;5098656;28;20449;-82
2023/01/01 00:37:24;;;;;;;23.97;22.13;;;;;;;;;;5100351;28;20435;-83
2023/01/01 00:39:51;;;;;;;24.60;23.00;;;;;;;;;;5099265;28;20731;-82
2023/01/01 00:42:19;;;;;;;24.57;22.63;;;;;;;;;;5099757;28;20448;-82
2023/01/01 00:44:46;;;;;;;24.63;22.73;;;;;;;;;;5099113;28;20504;-82
2023/01/01 00:47:13;;;;;;;24.37;22.40;;;;;;;;;;5099747;28;20489;-82
2023/01/01 00:49:40;;;;;;;24.57;22.43;;;;;;;;;;5099257;28;20450;-81
2023/01/01 00:52:07;;;;;;;23.50;21.93;;;;;;;;;;5099875;28;20461;-82
2023/01/01 00:54:34;;;;;;;27.23;24.93;;;;;;;;;;5098745;28;20449;-81
2023/01/01 00:57:01;;;;;;;25.63;23.63;;;;;;;;;;5100228;28;20471;-83
2023/01/01 00:59:29;;;;;;;24.43;22.70;;;;;;;;;;5098689;28;20452;-81
2023/01/01 01:01:56;;;;;;;25.40;23.20;;;;;;;;;;5098911;28;20925;-82
2023/01/01 01:04:23;;;;;;;24.40;22.80;;;;;;;;;;5098978;28;20933;-81
2023/01/01 01:06:50;;;;;;;25.90;23.90;;;;;;;;;;5099637;28;20516;-81
2023/01/01 01:09:17;;;;;;;24.43;22.73;;;;;;;;;;5099285;28;20447;-82
2023/01/01 01:11:44;;;;;;;25.37;23.53;;;;;;;;;;5099311;28;20448;-81
2023/01/01 01:14:11;;;;;;;24.37;22.40;;;;;;;;;;5099840;28;20489;-82
2023/01/01 01:16:39;;;;;;;24.80;23.20;;;;;;;;;;5099074;28;20966;-82
2023/01/01 01:19:08;;;;;;;25.17;23.20;;;;;;;;;;5101117;28;20445;-82
2023/01/01 01:21:35;;;;;;;24.43;22.53;;;;;;;;;;5100907;28;20896;-82
2023/01/01 01:24:03;;;;;;;25.40;23.60;;;;;;;;;;5098855;28;20526;-82
2023/01/01 01:26:32;;;;;;;24.80;23.03;;;;;;;;;;5100027;28;20508;-81
2023/01/01 01:28:59;;;;;;;24.77;22.83;;;;;;;;;;5098918;28;20450;-81
2023/01/01 01:31:28;;;;;;;24.93;22.73;;;;;;;;;;5099385;28;20483;-81
2023/01/01 01:33:57;;;;;;;25.50;23.37;;;;;;;;;;5098705;28;20441;-81
2023/01/01 01:36:25;;;;;;;26.03;23.63;;;;;;;;;;5098892;28;20970;-81
2023/01/01 01:38:52;;;;;;;25.20;23.30;;;;;;;;;;5099036;28;20422;-82
2023/01/01 01:41:20;;;;;;;22.43;21.03;;;;;;;;;;5099021;28;20454;-81
2023/01/01 01:43:51;;;;;;;25.27;23.23;;;;;;;;;;5098429;28;20454;-81
2023/01/01 01:46:20;;;;;;;24.93;23.20;;;;;;;;;;5099445;28;20450;-82
2023/01/01 01:48:48;;;;;;;25.10;22.70;;;;;;;;;;5100232;28;20777;-81
2023/01/01 01:51:18;;;;;;;24.10;22.50;;;;;;;;;;5099220;28;20433;-82
2023/01/01 01:53:46;;;;;;;24.73;22.50;;;;;;;;;;5099310;28;20435;-81
2023/01/01 01:56:15;;;;;;;23.93;22.10;;;;;;;;;;5098725;28;21028;-82
2023/01/01 01:58:42;;;;;;;24.53;22.63;;;;;;;;;;5098772;28;20906;-81
2023/01/01 02:01:09;;;;;;;23.83;22.17;;;;;;;;;;5099474;28;20436;-81
2023/01/01 02:03:38;;;;;;;24.37;22.77;;;;;;;;;;5099266;28;20413;-82
2023/01/01 02:06:05;;;;;;;24.03;22.50;;;;;;;;;;5103085;28;20499;-81
2023/01/01 02:08:34;;;;;;;24.60;22.67;;;;;;;;;;5102915;28;20453;-82
2023/01/01 02:11:02;;;;;;;24.40;22.47;;;;;;;;;;5102964;28;20456;-81
2023/01/01 02:13:29;;;;;;;23.93;22.17;;;;;;;;;;5102503;28;20447;-82
2023/01/01 02:16:00;;;;;;;23.40;21.80;;;;;;;;;;5103087;28;20531;-82
2023/01/01 02:18:33;;;;;;;23.17;21.73;;;;;;;;;;5102427;28;20522;-82
2023/01/01 02:21:03;;;;;;;25.23;23.43;;;;;;;;;;5102733;28;20458;-82
2023/01/01 02:23:51;;;;;;;24.67;22.90;;;;;;;;;;5102429;28;20449;-82
2023/01/01 02:26:37;;;;;;;23.17;21.40;;;;;;;;;;5096657;28;20472;-82
2023/01/01 02:29:08;;;;;;;22.70;21.20;;;;;;;;;;5102725;28;20440;-81
2023/01/01 02:31:38;;;;;;;23.83;22.27;;;;;;;;;;5103104;28;20491;-81
2023/01/01 02:34:06;;;;;;;25.00;22.90;;;;;;;;;;5102327;28;20413;-82
2023/01/01 02:36:34;;;;;;;25.10;23.10;;;;;;;;;;5102343;28;20479;-81
2023/01/01 02:39:02;;;;;;;23.97;22.47;;;;;;;;;;5102869;28;20437;-81
2023/01/01 02:41:31;;;;;;;24.30;22.53;;;;;;;;;;5102766;28;20450;-82
2023/01/01 02:43:58;;;;;;;24.90;23.23;;;;;;;;;;5102695;28;20425;-81
2023/01/01 02:46:31;;;;;;;25.37;23.60;;;;;;;;;;5102668;28;20448;-81
2023/01/01 02:48:58;;;;;;;24.60;22.93;;;;;;;;;;5102465;28;20529;-81
2023/01/01 02:51:30;;;;;;;24.43;22.77;;;;;;;;;;5102930;28;20502;-82
2023/01/01 02:54:00;;;;;;;23.53;22.00;;;;;;;;;;5101967;28;20840;-82
2023/01/01 02:56:31;;;;;;;23.20;21.70;;;;;;;;;;5102224;28;20885;-81
2023/01/01 03:01:52;;;;;;;22.43;20.93;;;;;;;;;;5102505;28;20395;-82
2023/01/01 03:04:26;;;;;;;22.50;20.90;;;;;;;;;;5101632;28;20439;-81
2023/01/01 03:06:56;;;;;;;22.60;21.30;;;;;;;;;;5103370;28;20448;-82
2023/01/01 03:09:25;;;;;;;22.50;20.97;;;;;;;;;;5102793;28;20462;-81
2023/01/01 03:11:57;;;;;;;22.97;21.40;;;;;;;;;;5102131;28;20511;-81
2023/01/01 03:14:28;;;;;;;23.67;22.17;;;;;;;;;;5101659;28;20433;-81
2023/01/01 03:17:02;;;;;;;23.80;22.23;;;;;;;;;;5102104;28;20500;-81
2023/01/01 03:19:32;;;;;;;23.90;21.87;;;;;;;;;;5102454;28;20407;-81
2023/01/01 03:22:01;;;;;;;24.13;22.30;;;;;;;;;;5102055;28;20440;-81
2023/01/01 03:24:33;;;;;;;24.00;22.43;;;;;;;;;;5101312;28;20426;-82
2023/01/01 03:27:05;;;;;;;23.13;21.70;;;;;;;;;;5102266;28;20466;-81
2023/01/01 03:29:34;;;;;;;24.47;22.70;;;;;;;;;;5102357;28;20456;-82
2023/01/01 03:32:04;;;;;;;23.33;21.80;;;;;;;;;;5102103;28;20462;-81
2023/01/01 03:34:34;;;;;;;24.80;23.43;;;;;;;;;;5100555;28;20786;-81
2023/01/01 03:37:04;;;;;;;23.13;21.63;;;;;;;;;;5101535;28;20530;-81
2023/01/01 03:39:34;;;;;;;23.40;21.90;;;;;;;;;;5102021;28;20446;-82
2023/01/01 03:42:05;;;;;;;23.50;21.77;;;;;;;;;;5101469;28;20784;-81
2023/01/01 03:44:34;;;;;;;23.50;22.00;;;;;;;;;;5101406;28;20453;-82
2023/01/01 03:47:02;;;;;;;23.23;21.83;;;;;;;;;;5101729;28;20462;-81
2023/01/01 03:49:30;;;;;;;24.10;22.17;;;;;;;;;;5101367;28;20909;-81
2023/01/01 03:52:00;;;;;;;24.60;22.80;;;;;;;;;;5100240;28;20451;-82
2023/01/01 03:54:33;;;;;;;24.33;22.63;;;;;;;;;;5101015;28;20472;-81
2023/01/01 03:57:03;;;;;;;24.63;22.90;;;;;;;;;;5101579;28;20471;-83
2023/01/01 03:59:33;;;;;;;23.23;21.67;;;;;;;;;;5100267;28;20471;-82
2023/01/01 04:02:02;;;;;;;23.97;22.17;;;;;;;;;;5101102;28;20780;-81
2023/01/01 04:04:30;;;;;;;24.13;22.13;;;;;;;;;;5100513;28;20423;-81
2023/01/01 04:06:58;;;;;;;21.17;19.97;;;;;;;;;;5100866;28;20472;-81
2023/01/01 04:09:29;;;;;;;22.67;21.23;;;;;;;;;;5100962;28;20464;-81
2023/01/01 04:12:06;;;;;;;22.20;20.90;;;;;;;;;;5100581;28;20482;-81
2023/01/01 04:14:36;;;;;;;23.10;21.70;;;;;;;;;;5100062;28;20439;-81
2023/01/01 04:17:04;;;;;;;23.73;22.23;;;;;;;;;;5100354;28;20527;-82
2023/01/01 04:19:33;;;;;;;21.57;20.27;;;;;;;;;;5101003;28;20454;-81
2023/01/01 04:22:00;;;;;;;22.13;20.70;;;;;;;;;;5100463;28;20453;-82
2023/01/01 04:24:27;;;;;;;21.17;20.07;;;;;;;;;;5099921;28;20507;-82
2023/01/01 04:26:55;;;;;;;22.13;20.73;;;;;;;;;;5099826;28;20443;-81
2023/01/01 04:29:22;;;;;;;23.33;21.73;;;;;;;;;;5100230;28;20998;-81
2023/01/01 04:31:49;;;;;;;22.80;21.30;;;;;;;;;;5100203;28;20434;-82
2023/01/01 04:34:16;;;;;;;21.67;20.20;;;;;;;;;;5099892;28;20424;-81
2023/01/01 04:36:45;;;;;;;21.40;20.20;;;;;;;;;;5100178;28;20470;-82
2023/01/01 04:39:12;;;;;;;21.20;20.10;;;;;;;;;;5100374;28;20454;-82
2023/01/01 04:41:39;;;;;;;22.67;21.17;;;;;;;;;;5100346;28;20494;-81
2023/01/01 04:44:06;;;;;;;21.80;20.50;;;;;;;;;;5099480;28;20460;-81
2023/01/01 04:46:33;;;;;;;22.03;20.73;;;;;;;;;;5100473;28;20473;-81
2023/01/01 04:49:00;;;;;;;21.97;20.20;;;;;;;;;;5100490;28;20452;-81
2023/01/01 04:51:27;;;;;;;21.00;19.80;;;;;;;;;;5099911;28;20425;-81
2023/01/01 04:53:55;;;;;;;22.23;20.83;;;;;;;;;;5099874;28;20445;-81
2023/01/01 04:56:23;;;;;;;22.10;20.80;;;;;;;;;;5099744;28;20477;-81
2023/01/01 04:58:50;;;;;;;22.77;21.23;;;;;;;;;;5099896;28;20446;-81
2023/01/01 05:01:18;;;;;;;21.43;20.23;;;;;;;;;;5099458;28;20474;-81
2023/01/01 05:03:46;;;;;;;23.10;21.30;;;;;;;;;;5099086;28;20446;-81
2023/01/01 05:06:13;;;;;;;21.90;20.70;;;;;;;;;;5099235;28;20460;-81
2023/01/01 05:08:41;;;;;;;21.53;20.43;;;;;;;;;;5099300;28;20528;-81
2023/01/01 05:11:10;;;;;;;21.47;20.17;;;;;;;;;;5099130;28;20452;-81
2023/01/01 05:13:37;;;;;;;22.07;20.77;;;;;;;;;;5099016;28;20461;-81
2023/01/01 05:16:04;;;;;;;21.30;20.00;;;;;;;;;;5099125;28;21052;-81
2023/01/01 05:18:31;;;;;;;22.87;21.37;;;;;;;;;;5099199;28;20907;-82
2023/01/01 05:21:00;;;;;;;21.87;20.50;;;;;;;;;;5099669;28;20462;-81
2023/01/01 05:23:27;;;;;;;22.97;20.73;;;;;;;;;;5098595;28;20446;-81
2023/01/01 05:25:54;;;;;;;22.03;20.73;;;;;;;;;;5099055;28;20471;-81
2023/01/01 05:28:23;;;;;;;21.40;19.90;;;;;;;;;;5099701;28;20484;-82
2023/01/01 05:30:50;;;;;;;21.20;20.00;;;;;;;;;;5098878;28;20417;-82
2023/01/01 05:33:17;;;;;;;21.33;20.13;;;;;;;;;;5098707;28;20838;-81
2023/01/01 05:35:45;;;;;;;20.70;19.50;;;;;;;;;;5099471;28;20473;-82
2023/01/01 05:38:12;;;;;;;21.57;19.97;;;;;;;;;;5098244;28;20397;-81
2023/01/01 05:40:39;;;;;;;22.87;21.37;;;;;;;;;;5098318;28;20513;-82
2023/01/01 05:43:06;;;;;;;21.30;20.10;;;;;;;;;;5097889;28;20416;-82
2023/01/01 05:45:35;;;;;;;20.87;19.57;;;;;;;;;;5098885;28;20440;-82
2023/01/01 05:48:03;;;;;;;21.37;20.17;;;;;;;;;;5098936;28;20519;-82
2023/01/01 05:50:30;;;;;;;21.57;20.30;;;;;;;;;;5098672;28;20448;-81
2023/01/01 05:52:57;;;;;;;21.37;20.03;;;;;;;;;;5098204;28;20498;-83
2023/01/01 05:55:24;;;;;;;21.17;19.87;;;;;;;;;;5098981;28;20441;-81
2023/01/01 05:57:50;;;;;;;21.80;20.30;;;;;;;;;;5098417;28;20438;-81
2023/01/01 06:00:18;;;;;;;21.20;20.10;;;;;;;;;;5099331;28;20479;-81
2023/01/01 06:02:48;;;;;;;21.73;20.33;;;;;;;;;;5099102;28;20466;-82
2023/01/01 06:05:15;;;;;;;21.77;20.27;;;;;;;;;;5098375;28;20730;-82
2023/01/01 06:07:42;;;;;;;21.50;20.30;;;;;;;;;;5098628;28;20478;-81
2023/01/01 06:10:09;;;;;;;21.50;19.90;;;;;;;;;;5099379;28;20512;-82
2023/01/01 06:12:36;;;;;;;22.27;20.40;;;;;;;;;;5098818;28;20423;-81
2023/01/01 06:15:03;;;;;;;21.37;20.17;;;;;;;;;;5098104;28;20493;-81
2023/01/01 06:17:30;;;;;;;21.50;20.30;;;;;;;;;;5098830;28;20471;-82
2023/01/01 06:19:59;;;;;;;23.33;21.50;;;;;;;;;;5099033;28;20398;-82
2023/01/01 06:22:26;;;;;;;22.97;20.90;;;;;;;;;;5098187;28;21112;-81
2023/01/01 06:24:53;;;;;;;22.47;21.07;;;;;;;;;;5098184;28;20430;-81
2023/01/01 06:27:20;;;;;;;21.07;19.87;;;;;;;;;;5098363;28;20450;-82
2023/01/01 06:29:47;;;;;;;22.50;21.10;;;;;;;;;;5098509;28;20489;-81
2023/01/01 06:32:14;;;;;;;21.90;20.27;;;;;;;;;;5098439;28;20801;-82
2023/01/01 06:34:41;;;;;;;22.43;21.03;;;;;;;;;;5097879;28;20417;-81
2023/01/01 06:37:09;;;;;;;21.27;20.07;;;;;;;;;;5098100;28;20470;-81
2023/01/01 06:39:36;;;;;;;21.93;20.50;;;;;;;;;;5098434;28;20420;-81
2023/01/01 06:42:03;;;;;;;22.03;20.83;;;;;;;;;;5098059;28;20422;-81
2023/01/01 06:44:30;;;;;;;26.53;24.50;;;;;;;;;;5097996;28;20427;-81
2023/01/01 06:46:57;;;;;;;21.70;20.27;;;;;;;;;;5098640;28;20459;-81
2023/01/01 06:49:24;;;;;;;21.17;19.87;;;;;;;;;;5098767;28;20448;-81
2023/01/01 06:51:51;;;;;;;20.80;19.70;;;;;;;;;;5102527;28;20920;-81
2023/01/01 06:54:19;;;;;;;21.97;20.57;;;;;;;;;;5101649;28;20445;-82
2023/01/01 06:56:46;;;;;;;22.37;21.07;;;;;;;;;;5102581;28;20830;-81
2023/01/01 06:59:13;;;;;;;23.33;21.73;;;;;;;;;;5102306;28;20517;-82
2023/01/01 07:01:40;;;;;;;21.27;19.80;;;;;;;;;;5100734;28;20449;-81
2023/01/01 07:04:08;;;;;;;21.73;20.23;;;;;;;;;;5101791;28;20456;-81
2023/01/01 07:06:35;;;;;;;21.73;20.20;;;;;;;;;;5102192;28;20504;-81
2023/01/01 07:09:02;;;;;;;21.40;20.03;;;;;;;;;;5102095;28;20456;-81
2023/01/01 07:11:31;;;;;;;21.57;20.37;;;;;;;;;;5101947;28;20413;-81
2023/01/01 07:13:58;;;;;;;22.10;20.63;;;;;;;;;;5101573;28;20424;-82
2023/01/01 07:16:25;;;;;;;21.03;19.77;;;;;;;;;;5100742;28;20486;-81
2023/01/01 07:18:52;;;;;;;21.87;20.63;;;;;;;;;;5101976;28;20446;-81
2023/01/01 07:21:24;;;;;;;21.07;19.77;;;;;;;;;;5101644;28;20429;-82
2023/01/01 07:23:51;;;;;;;22.50;21.20;;;;;;;;;;5101171;28;20474;-81
2023/01/01 07:26:18;;;;;;;21.20;20.00;;;;;;;;;;5100893;28;20439;-81
2023/01/01 07:28:47;;;;;;;22.13;20.77;;;;;;;;;;5101348;28;20481;-82
2023/01/01 07:31:14;;;;;;;20.80;19.60;;;;;;;;;;5101630;28;20451;-81
2023/01/01 07:33:41;;;;;;;21.77;20.30;;;;;;;;;;5100944;28;20450;-81
2023/01/01 07:36:08;;;;;;;22.20;20.80;;;;;;;;;;5101297;28;20471;-82
2023/01/01 07:38:36;;;;;;;22.17;20.87;;;;;;;;;;5101261;28;20438;-81
2023/01/01 07:41:03;;;;;;;21.93;20.63;;;;;;;;;;5101615;28;20446;-81
2023/01/01 07:43:30;;;;;;;22.00;20.60;;;;;;;;;;5096884;28;20424;-79
2023/01/01 07:45:59;;;;;;;21.90;20.60;;;;;;;;;;5096989;28;20461;-79
2023/01/01 07:48:26;;;;;;;22.50;21.00;;;;;;;;;;5096990;28;20450;-79
2023/01/01 07:50:53;;;;;;;21.57;20.27;;;;;;;;;;5096908;28;20442;-78
2023/01/01 07:53:19;;;;;;;21.47;20.17;;;;;;;;;;5096255;28;20451;-79
2023/01/01 07:55:46;;;;;;;21.80;20.50;;;;;;;;;;5096891;28;20479;-79
2023/01/01 07:58:13;;;;;;;21.13;19.93;;;;;;;;;;5096520;28;20454;-79
2023/01/01 08:00:41;;;;;;;21.47;20.07;;;;;;;;;;5096617;28;20846;-79
2023/01/01 08:03:10;;;;;;;21.93;20.63;;;;;;;;;;5095833;28;20450;-80
2023/01/01 08:05:38;;;;;;;21.30;19.90;;;;;;;;;;5096697;28;20425;-79
2023/01/01 08:08:05;;;;;;;21.83;20.47;;;;;;;;;;5095961;28;20470;-79
2023/01/01 08:10:32;;;;;;;21.73;20.43;;;;;;;;;;5096918;28;20487;-79
2023/01/01 08:13:00;;;;;;;21.30;20.10;;;;;;;;;;5095710;28;20450;-80
2023/01/01 08:15:27;;;;;;;22.37;20.50;;;;;;;;;;5096422;28;20441;-78
2023/01/01 08:17:56;;;;;;;22.07;20.67;;;;;;;;;;5096246;28;20453;-79
2023/01/01 08:20:24;;;;;;;21.63;20.23;;;;;;;;;;5096493;28;20445;-79
2023/01/01 08:22:52;;;;;;;22.10;20.50;;;;;;;;;;5096151;28;20445;-79
2023/01/01 08:25:18;;;;;;;21.07;19.93;;;;;;;;;;5096040;28;20451;-79
2023/01/01 08:27:45;;;;;;;21.73;20.30;;;;;;;;;;5096243;28;20497;-79
2023/01/01 08:30:14;;;;;;;22.27;20.90;;;;;;;;;;5096067;28;20848;-79
2023/01/01 08:32:41;;;;;;;21.97;20.33;;;;;;;;;;5096383;28;20460;-79
2023/01/01 08:35:08;;;;;;;21.80;20.60;;;;;;;;;;5095977;28;20787;-78
2023/01/01 08:37:37;;;;;;;22.17;20.87;;;;;;;;;;5095849;28;20481;-79
2023/01/01 08:40:04;;;;;;;21.37;20.17;;;;;;;;;;5096188;28;20416;-79
2023/01/01 08:42:31;;;;;;;21.00;19.90;;;;;;;;;;5095583;28;20919;-78
2023/01/01 08:44:58;;;;;;;23.03;21.63;;;;;;;;;;5095013;28;20444;-79
2023/01/01 08:47:26;;;;;;;21.60;20.20;;;;;;;;;;5094546;28;20435;-79
2023/01/01 08:49:53;;;;;;;23.13;21.50;;;;;;;;;;5096724;28;20465;-79
2023/01/01 08:52:20;;;;;;;23.40;21.90;;;;;;;;;;5096872;28;20424;-80
2023/01/01 08:54:49;;;;;;;21.50;20.20;;;;;;;;;;5095512;28;20442;-79
2023/01/01 08:57:16;;;;;;;23.30;21.80;;;;;;;;;;5095875;28;20513;-79
2023/01/01 08:59:43;;;;;;;24.30;22.33;;;;;;;;;;5095938;28;20421;-79
2023/01/01 09:02:10;;;;;;;21.90;20.50;;;;;;;;;;5096272;28;20455;-79
2023/01/01 09:04:37;;;;;;;27.37;25.20;;;;;;;;;;5095698;28;20455;-79
2023/01/01 09:07:04;;;;;;;23.67;21.97;;;;;;;;;;5096002;28;20469;-79
2023/01/01 09:09:31;;;;;;;24.97;22.67;;;;;;;;;;5096402;28;20452;-79
2023/01/01 09:12:04;;;;;;;24.07;22.47;;;;;;;;;;5095753;28;20834;-79
2023/01/01 09:14:31;;;;;;;21.00;19.80;;;;;;;;;;5094878;28;20967;-80
2023/01/01 09:17:00;;;;;;;21.87;20.43;;;;;;;;;;5095879;28;20516;-79
2023/01/01 09:19:27;;;;;;;21.63;20.40;;;;;;;;;;5095506;28;20852;-79
2023/01/01 09:21:54;;;;;;;22.63;21.03;;;;;;;;;;5095720;28;20505;-78
2023/01/01 09:24:21;;;;;;;22.73;21.30;;;;;;;;;;5094918;28;20429;-79
2023/01/01 09:26:48;;;;;;;21.57;20.30;;;;;;;;;;5095988;28;20531;-79
2023/01/01 09:29:19;;;;;;;21.03;19.90;;;;;;;;;;5095866;28;20447;-79
2023/01/01 09:31:46;;;;;;;21.67;20.40;;;;;;;;;;5095631;28;20836;-79
2023/01/01 09:34:13;;;;;;;21.57;20.27;;;;;;;;;;5094897;28;20498;-79
2023/01/01 09:36:40;;;;;;;22.00;20.70;;;;;;;;;;5095450;28;20462;-79
2023/01/01 09:39:07;;;;;;;21.13;19.97;;;;;;;;;;5095036;28;20419;-79
2023/01/01 09:41:42;;;;;;;21.30;20.00;;;;;;;;;;5095248;28;20411;-79
2023/01/01 09:44:12;;;;;;;23.60;22.00;;;;;;;;;;5094371;28;20404;-79
2023/01/01 09:46:40;;;;;;;22.17;20.77;;;;;;;;;;5095378;28;20466;-79
2023/01/01 09:49:11;;;;;;;21.53;20.33;;;;;;;;;;5094966;28;20420;-79
2023/01/01 09:51:40;;;;;;;20.77;19.23;;;;;;;;;;5095084;28;20465;-79
2023/01/01 09:54:11;;;;;;;20.87;19.57;;;;;;;;;;5095064;28;20429;-79
2023/01/01 09:56:40;;;;;;;20.77;19.40;;;;;;;;;;5095252;28;20800;-80
2023/01/01 09:59:08;;;;;;;21.97;20.57;;;;;;;;;;5095595;28;20420;-79
2023/01/01 10:01:39;;;;;;;21.53;20.27;;;;;;;;;;5095064;28;20479;-78
2023/01/01 10:04:15;;;;;;;22.00;20.60;;;;;;;;;;5094761;28;20459;-79
2023/01/01 10:06:45;;;;;;;20.77;19.47;;;;;;;;;;5094362;28;20444;-79
2023/01/01 10:09:16;;;;;;;21.63;20.23;;;;;;;;;;5095876;28;20840;-79
2023/01/01 10:11:46;;;;;;;20.90;19.70;;;;;;;;;;5095291;28;20487;-79
2023/01/01 10:14:17;;;;;;;22.40;20.83;;;;;;;;;;5094327;28;20487;-79
2023/01/01 10:16:47;;;;;;;22.80;20.90;;;;;;;;;;5094965;28;20774;-79
2023/01/01 10:19:21;;;;;;;26.63;24.50;;;;;;;;;;5095143;28;20453;-79
2023/01/01 10:21:50;;;;;;;21.97;20.47;;;;;;;;;;5094050;28;20457;-78
2023/01/01 10:24:24;;;;;;;21.37;20.17;;;;;;;;;;5094686;28;20547;-79
2023/01/01 10:26:52;;;;;;;20.13;19.00;;;;;;;;;;5099631;28;20440;-78
2023/01/01 10:29:22;;;;;;;21.50;20.20;;;;;;;;;;5099365;28;21010;-79
2023/01/01 10:31:49;;;;;;;22.10;20.57;;;;;;;;;;5099802;28;20764;-78
2023/01/01 10:34:20;;;;;;;24.50;22.43;;;;;;;;;;5098692;28;20472;-79
2023/01/01 10:36:47;;;;;;;21.60;19.87;;;;;;;;;;5100287;28;20440;-79
2023/01/01 10:39:15;;;;;;;20.07;18.80;;;;;;;;;;5098606;28;20440;-79
2023/01/01 10:41:42;;;;;;;20.63;19.13;;;;;;;;;;5097738;28;20470;-79
2023/01/01 10:44:10;;;;;;;20.07;18.67;;;;;;;;;;5095556;28;20494;-79
2023/01/01 10:46:37;;;;;;;20.60;19.40;;;;;;;;;;5097781;28;20479;-79
2023/01/01 10:49:06;;;;;;;21.40;19.30;;;;;;;;;;5097440;28;21002;-79
2023/01/01 10:51:37;;;;;;;19.23;18.13;;;;;;;;;;5097527;28;20441;-79
2023/01/01 10:54:04;;;;;;;19.90;18.70;;;;;;;;;;5097164;28;20434;-78
2023/01/01 10:56:39;;;;;;;21.10;19.60;;;;;;;;;;5097548;28;20512;-78
2023/01/01 10:59:27;;;;;;;20.80;19.50;;;;;;;;;;5097332;28;20454;-79
2023/01/01 11:02:08;;;;;;;20.90;19.60;;;;;;;;;;5097734;28;20420;-79
2023/01/01 11:04:35;;;;;;;20.50;19.20;;;;;;;;;;5097268;28;20405;-79
2023/01/01 11:07:06;;;;;;;21.30;19.50;;;;;;;;;;5097428;28;20578;-79
2023/01/01 11:09:35;;;;;;;20.00;18.80;;;;;;;;;;5097667;28;20450;-78
2023/01/01 11:12:03;;;;;;;20.63;19.00;;;;;;;;;;5097418;28;20451;-79
2023/01/01 11:14:38;;;;;;;20.43;19.23;;;;;;;;;;5096904;28;20449;-78
2023/01/01 11:17:07;;;;;;;20.57;19.27;;;;;;;;;;5096878;28;20468;-78
2023/01/01 11:19:35;;;;;;;21.13;20.03;;;;;;;;;;5097333;28;20502;-79
2023/01/01 11:22:03;;;;;;;20.97;19.63;;;;;;;;;;5095951;28;20788;-78
2023/01/01 11:24:30;;;;;;;19.87;18.67;;;;;;;;;;5095568;28;20496;-78
2023/01/01 11:27:12;;;;;;;21.10;19.40;;;;;;;;;;5096465;28;20465;-78
2023/01/01 11:29:39;;;;;;;19.00;17.80;;;;;;;;;;5096941;28;20779;-78
2023/01/01 11:32:09;;;;;;;19.07;17.83;;;;;;;;;;5097292;28;20424;-79
2023/01/01 11:34:37;;;;;;;20.67;19.27;;;;;;;;;;5098037;28;20445;-79
2023/01/01 11:37:08;;;;;;;20.30;18.70;;;;;;;;;;5098190;28;20879;-78
2023/01/01 11:39:36;;;;;;;19.07;17.97;;;;;;;;;;5100113;28;20469;-78
2023/01/01 11:42:04;;;;;;;19.87;18.77;;;;;;;;;;5097292;28;20448;-79
2023/01/01 11:44:35;;;;;;;18.77;17.60;;;;;;;;;;5096877;28;20495;-79
2023/01/01 11:47:02;;;;;;;18.77;17.67;;;;;;;;;;5096756;28;20435;-78
2023/01/01 11:49:31;;;;;;;19.40;18.30;;;;;;;;;;5096021;28;21021;-78
2023/01/01 11:51:58;;;;;;;19.80;18.53;;;;;;;;;;5096502;28;20449;-78
2023/01/01 11:54:31;;;;;;;18.80;17.80;;;;;;;;;;5096186;28;20415;-78
2023/01/01 11:57:01;;;;;;;19.10;17.73;;;;;;;;;;5096451;28;20484;-79
2023/01/01 11:59:29;;;;;;;19.30;18.17;;;;;;;;;;5096159;28;20473;-78
2023/01/01 12:01:58;;;;;;;19.23;17.93;;;;;;;;;;5096463;28;20980;-78
2023/01/01 12:04:28;;;;;;;19.87;18.47;;;;;;;;;;5096261;28;20415;-78
2023/01/01 12:06:59;;;;;;;20.40;19.20;;;;;;;;;;5095954;28;20857;-78
2023/01/01 12:09:30;;;;;;;19.37;18.20;;;;;;;;;;5096887;28;20429;-78
2023/01/01 12:12:00;;;;;;;19.33;18.00;;;;;;;;;;5096565;28;20523;-78
2023/01/01 12:14:31;;;;;;;20.67;19.33;;;;;;;;;;5096770;28;20421;-78
2023/01/01 12:17:00;;;;;;;20.00;18.80;;;;;;;;;;5096581;28;20497;-79
2023/01/01 12:19:29;;;;;;;19.60;18.30;;;;;;;;;;5096006;28;20428;-79
2023/01/01 12:21:59;;;;;;;19.40;18.20;;;;;;;;;;5095563;28;20458;-78
2023/01/01 12:24:26;;;;;;;20.03;18.60;;;;;;;;;;5094812;28;20420;-78
2023/01/01 12:26:58;;;;;;;20.57;19.27;;;;;;;;;;5095731;28;20777;-83
2023/01/01 12:29:48;;;;;;;20.23;19.03;;;;;;;;;;5096882;28;20431;-78
2023/01/01 12:32:20;;;;;;;19.37;18.17;;;;;;;;;;5095692;28;20430;-78
2023/01/01 12:34:51;;;;;;;20.27;18.77;;;;;;;;;;5094244;28;20480;-82
2023/01/01 12:37:27;;;;;;;20.33;18.90;;;;;;;;;;5100057;28;20435;-83
2023/01/01 12:40:12;;;;;;;21.10;19.50;;;;;;;;;;5101967;28;20422;-83
2023/01/01 12:42:46;;;;;;;19.30;18.00;;;;;;;;;;5101960;28;20422;-83
2023/01/01 12:45:41;;;;;;;19.77;18.47;;;;;;;;;;5099071;28;20496;-84
2023/01/01 12:48:18;;;;;;;99.63;61.53;;;;;;;;;;5100934;28;20393;-83
2023/01/01 12:50:50;;;;;;;67.80;47.80;;;;;;;;;;5101496;28;20454;-84
2023/01/01 12:53:25;;;;;;;20.90;19.50;;;;;;;;;;5100762;28;20430;-83
2023/01/01 12:55:58;;;;;;;20.63;19.23;;;;;;;;;;5101167;28;20445;-85
2023/01/01 12:58:29;;;;;;;21.00;19.60;;;;;;;;;;5102277;28;20435;-85
2023/01/01 13:00:57;;;;;;;20.10;18.80;;;;;;;;;;5099076;28;20395;-79
2023/01/01 13:03:26;;;;;;;20.33;19.07;;;;;;;;;;5098410;28;20430;-86
2023/01/01 13:05:55;;;;;;;20.47;19.27;;;;;;;;;;5097474;28;20436;-79
2023/01/01 13:08:23;;;;;;;20.93;19.40;;;;;;;;;;5097340;28;20904;-79
2023/01/01 13:10:52;;;;;;;20.60;19.30;;;;;;;;;;5097818;28;20481;-79
2023/01/01 13:13:19;;;;;;;20.83;19.30;;;;;;;;;;5097483;28;20446;-80
2023/01/01 13:15:48;;;;;;;21.30;19.83;;;;;;;;;;5097582;28;20472;-80
2023/01/01 13:18:28;;;;;;;21.40;19.80;;;;;;;;;;5096082;28;20418;-79
2023/01/01 13:20:57;;;;;;;23.30;21.70;;;;;;;;;;5095662;28;20533;-79
2023/01/01 13:23:48;;;;;;;21.73;20.40;;;;;;;;;;5095494;28;20416;-79
2023/01/01 13:26:32;;;;;;;20.10;19.00;;;;;;;;;;5095976;28;20448;-79
2023/01/01 13:29:23;;;;;;;19.77;18.67;;;;;;;;;;5095854;28;20427;-79
2023/01/01 13:32:00;;;;;;;20.33;19.03;;;;;;;;;;5075105;28;21026;-78
2023/01/01 13:34:34;;;;;;;21.67;20.27;;;;;;;;;;5073197;28;20409;-78
2023/01/01 13:37:16;;;;;;;20.97;19.70;;;;;;;;;;5073744;28;20474;-78
2023/01/01 13:39:55;;;;;;;20.83;19.63;;;;;;;;;;5073023;28;20420;-78
2023/01/01 13:42:42;;;;;;;23.40;21.80;;;;;;;;;;5073572;28;20470;-77
2023/01/01 13:45:15;;;;;;;23.07;21.47;;;;;;;;;;5074811;28;20809;-80
2023/01/01 13:47:51;;;;;;;23.10;21.17;;;;;;;;;;5075181;28;20434;-78
2023/01/01 13:50:21;;;;;;;22.90;21.23;;;;;;;;;;5075621;28;20400;-79
2023/01/01 13:52:59;;;;;;;21.97;20.40;;;;;;;;;;5075701;28;20782;-79
2023/01/01 13:55:42;;;;;;;21.67;20.37;;;;;;;;;;5075516;28;20404;-79
2023/01/01 13:58:23;;;;;;;23.47;21.40;;;;;;;;;;5063306;28;20948;-79
2023/01/01 14:01:00;;;;;;;21.03;19.60;;;;;;;;;;5074417;28;20432;-79
2023/01/01 14:03:28;;;;;;;21.60;20.30;;;;;;;;;;5075161;28;20820;-79
2023/01/01 14:05:56;;;;;;;21.73;20.43;;;;;;;;;;5075187;28;20494;-79
2023/01/01 14:08:30;;;;;;;20.77;19.53;;;;;;;;;;5074781;28;20442;-78
2023/01/01 14:10:59;;;;;;;22.40;20.80;;;;;;;;;;5075566;28;20461;-79
2023/01/01 14:13:28;;;;;;;23.50;22.10;;;;;;;;;;5089913;28;20883;-80
2023/01/01 14:15:57;;;;;;;21.23;19.97;;;;;;;;;;5095412;28;20834;-79
2023/01/01 14:18:29;;;;;;;22.07;20.50;;;;;;;;;;5095901;28;20453;-79
2023/01/01 14:20:56;;;;;;;22.80;21.40;;;;;;;;;;5095304;28;20473;-80
2023/01/01 14:23:27;;;;;;;20.77;19.67;;;;;;;;;;5094756;28;20430;-80
2023/01/01 14:25:54;;;;;;;21.20;19.90;;;;;;;;;;5095250;28;20464;-79
2023/01/01 14:28:24;;;;;;;22.07;20.57;;;;;;;;;;5095695;28;20476;-79
2023/01/01 14:30:53;;;;;;;21.43;20.03;;;;;;;;;;5095764;28;20457;-79
2023/01/01 14:33:24;;;;;;;20.07;18.83;;;;;;;;;;5094935;28;20441;-79